createdAt,value
2022-08-22T00:00:02.600Z,17.31
2022-08-22T00:01:02.597Z,17.27
2022-08-22T00:02:02.623Z,17.27
2022-08-22T00:02:47.156Z,17.88
2022-08-22T00:02:48.340Z,19.86
2022-08-22T00:02:57.375Z,17.53
2022-08-22T00:02:58.997Z,17.39
2022-08-22T00:03:01.015Z,19.38
2022-08-22T00:03:04.817Z,21.25
2022-08-22T00:03:09.503Z,17.53
2022-08-22T00:04:02.558Z,17.17
2022-08-22T00:05:02.556Z,17.13
2022-08-22T00:06:02.539Z,17.14
2022-08-22T00:07:02.535Z,17.13
2022-08-22T00:08:02.555Z,17.09
2022-08-22T00:09:02.506Z,17.09
2022-08-22T00:10:02.506Z,17.07
2022-08-22T00:11:02.497Z,17.06
2022-08-22T00:12:02.504Z,17.06
2022-08-22T00:13:02.505Z,17.09
2022-08-22T00:14:02.484Z,17.06
2022-08-22T00:15:02.475Z,16.99
2022-08-22T00:16:02.539Z,17.01
2022-08-22T00:17:02.455Z,17.01
2022-08-22T00:18:02.495Z,17.02
2022-08-22T00:19:02.575Z,17.02
2022-08-22T00:20:02.474Z,17.04
2022-08-22T00:21:02.424Z,17.02
2022-08-22T00:22:02.436Z,17.06
2022-08-22T00:23:02.455Z,17.06
2022-08-22T00:24:02.478Z,17.04
2022-08-22T00:25:02.405Z,17.07
2022-08-22T00:26:02.395Z,17.06
2022-08-22T00:27:02.383Z,17.10
2022-08-22T00:28:02.464Z,17.17
2022-08-22T00:29:02.384Z,17.16
2022-08-22T00:30:02.380Z,17.17
2022-08-22T00:31:02.353Z,17.13
2022-08-22T00:32:02.361Z,17.16
2022-08-22T00:33:02.359Z,17.16
2022-08-22T00:34:02.354Z,17.14
2022-08-22T00:35:02.333Z,17.10
2022-08-22T00:36:02.331Z,17.13
2022-08-22T00:37:02.318Z,17.13
2022-08-22T00:38:02.333Z,17.12
2022-08-22T00:39:02.311Z,17.07
2022-08-22T00:40:03.390Z,17.06
2022-08-22T00:41:02.316Z,17.06
2022-08-22T00:42:02.284Z,16.98
2022-08-22T00:43:02.292Z,16.95
2022-08-22T00:44:02.274Z,16.92
2022-08-22T00:45:02.272Z,16.90
2022-08-22T00:46:02.253Z,16.83
2022-08-22T00:47:02.242Z,16.77
2022-08-22T00:48:02.264Z,16.73
2022-08-22T00:49:02.232Z,16.69
2022-08-22T00:50:02.232Z,16.65
2022-08-22T00:51:02.211Z,16.59
2022-08-22T00:52:02.220Z,16.58
2022-08-22T00:53:02.232Z,16.57
2022-08-22T00:54:02.220Z,16.49
2022-08-22T00:55:02.180Z,16.49
2022-08-22T00:56:02.231Z,16.42
2022-08-22T00:57:02.171Z,16.36
2022-08-22T00:58:02.200Z,16.36
2022-08-22T00:59:23.210Z,16.29
2022-08-22T01:00:02.159Z,16.33
2022-08-22T01:01:02.242Z,16.29
2022-08-22T01:02:02.149Z,16.26
2022-08-22T01:03:02.140Z,16.26
2022-08-22T01:04:02.149Z,16.24
2022-08-22T01:05:02.129Z,16.17
2022-08-22T01:06:02.119Z,16.13
2022-08-22T01:07:02.121Z,16.13
2022-08-22T01:08:02.160Z,16.10
2022-08-22T01:09:02.103Z,16.08
2022-08-22T01:10:02.099Z,16.08
2022-08-22T01:11:02.078Z,16.09
2022-08-22T01:12:02.068Z,16.10
2022-08-22T01:13:02.081Z,16.09
2022-08-22T01:14:02.059Z,16.02
2022-08-22T01:15:02.064Z,15.98
2022-08-22T01:16:02.051Z,15.95
2022-08-22T01:17:02.087Z,15.91
2022-08-22T01:18:02.079Z,15.80
2022-08-22T01:19:02.027Z,15.73
2022-08-22T01:20:02.018Z,15.68
2022-08-22T01:21:02.001Z,15.66
2022-08-22T01:22:02.008Z,15.68
2022-08-22T01:23:02.015Z,15.65
2022-08-22T01:24:01.987Z,15.62
2022-08-22T01:25:01.990Z,15.60
2022-08-22T01:26:01.974Z,15.62
2022-08-22T01:27:01.966Z,15.60
2022-08-22T01:28:01.986Z,15.65
2022-08-22T01:29:01.977Z,15.62
2022-08-22T01:30:01.951Z,15.59
2022-08-22T01:31:01.950Z,15.47
2022-08-22T01:32:01.937Z,15.43
2022-08-22T01:33:01.966Z,15.36
2022-08-22T01:34:01.977Z,15.38
2022-08-22T01:35:01.927Z,15.38
2022-08-22T01:36:01.906Z,15.38
2022-08-22T01:37:01.906Z,15.38
2022-08-22T01:38:01.967Z,15.41
2022-08-22T01:39:01.898Z,15.41
2022-08-22T01:40:01.946Z,15.43
2022-08-22T01:41:01.867Z,15.40
2022-08-22T01:42:01.886Z,15.36
2022-08-22T01:43:01.865Z,15.36
2022-08-22T01:44:01.844Z,15.35
2022-08-22T01:45:01.865Z,15.30
2022-08-22T01:46:01.854Z,15.30
2022-08-22T01:47:01.831Z,15.27
2022-08-22T01:48:01.846Z,15.25
2022-08-22T01:49:01.805Z,15.22
2022-08-22T01:50:01.823Z,15.14
2022-08-22T01:51:01.801Z,15.10
2022-08-22T01:52:01.795Z,15.10
2022-08-22T01:53:01.793Z,15.12
2022-08-22T01:54:01.781Z,15.14
2022-08-22T01:55:01.764Z,15.10
2022-08-22T01:56:01.765Z,15.11
2022-08-22T01:57:01.773Z,15.10
2022-08-22T01:58:01.783Z,15.07
2022-08-22T01:59:02.076Z,15.12
2022-08-22T02:00:01.774Z,15.10
2022-08-22T02:01:01.775Z,15.07
2022-08-22T02:02:01.722Z,15.04
2022-08-22T02:03:01.751Z,14.96
2022-08-22T02:04:01.702Z,14.93
2022-08-22T02:05:01.694Z,14.87
2022-08-22T02:06:01.691Z,14.87
2022-08-22T02:07:01.682Z,14.86
2022-08-22T02:08:01.760Z,14.85
2022-08-22T02:09:01.671Z,14.83
2022-08-22T02:10:01.683Z,14.85
2022-08-22T02:11:01.651Z,14.83
2022-08-22T02:12:01.653Z,14.86
2022-08-22T02:13:01.663Z,14.77
2022-08-22T02:14:01.661Z,14.73
2022-08-22T02:15:01.641Z,14.71
2022-08-22T02:16:01.624Z,14.69
2022-08-22T02:17:01.621Z,14.66
2022-08-22T02:18:01.630Z,14.61
2022-08-22T02:19:01.611Z,14.61
2022-08-22T02:20:01.612Z,14.59
2022-08-22T02:21:01.590Z,14.63
2022-08-22T02:22:01.580Z,14.66
2022-08-22T02:23:01.598Z,14.63
2022-08-22T02:24:01.571Z,14.63
2022-08-22T02:25:01.549Z,14.59
2022-08-22T02:26:01.559Z,14.59
2022-08-22T02:27:01.541Z,14.56
2022-08-22T02:28:01.561Z,14.55
2022-08-22T02:29:01.534Z,14.55
2022-08-22T02:30:01.535Z,14.58
2022-08-22T02:31:01.644Z,14.61
2022-08-22T02:32:01.508Z,14.67
2022-08-22T02:33:01.512Z,14.67
2022-08-22T02:34:01.489Z,14.69
2022-08-22T02:35:01.479Z,14.67
2022-08-22T02:36:01.480Z,14.69
2022-08-22T02:37:01.467Z,14.69
2022-08-22T02:38:01.489Z,14.73
2022-08-22T02:39:01.458Z,14.74
2022-08-22T02:40:01.474Z,14.74
2022-08-22T02:41:01.437Z,14.73
2022-08-22T02:42:01.438Z,14.71
2022-08-22T02:43:01.446Z,14.70
2022-08-22T02:44:01.431Z,14.67
2022-08-22T02:45:01.414Z,14.67
2022-08-22T02:46:01.409Z,14.69
2022-08-22T02:47:01.398Z,14.69
2022-08-22T02:48:01.416Z,14.67
2022-08-22T02:49:01.386Z,14.66
2022-08-22T02:50:01.386Z,14.61
2022-08-22T02:51:01.375Z,14.61
2022-08-22T02:52:01.422Z,14.61
2022-08-22T02:53:01.395Z,14.64
2022-08-22T02:54:01.345Z,14.67
2022-08-22T02:55:01.346Z,14.69
2022-08-22T02:56:01.344Z,14.69
2022-08-22T02:57:01.326Z,14.64
2022-08-22T02:58:01.364Z,14.64
2022-08-22T02:59:01.314Z,14.66
2022-08-22T03:00:01.326Z,14.63
2022-08-22T03:01:01.321Z,14.61
2022-08-22T03:02:01.305Z,14.58
2022-08-22T03:03:01.634Z,14.58
2022-08-22T03:04:01.403Z,14.56
2022-08-22T03:06:27.238Z,14.55
2022-08-22T03:07:27.240Z,14.52
2022-08-22T03:08:27.238Z,14.51
2022-08-22T03:09:27.227Z,14.51
2022-08-22T03:10:27.210Z,14.55
2022-08-22T03:11:27.214Z,14.55
2022-08-22T03:12:27.203Z,14.56
2022-08-22T03:13:27.209Z,14.56
2022-08-22T03:14:27.178Z,14.63
2022-08-22T03:15:27.179Z,14.67
2022-08-22T03:16:27.168Z,14.67
2022-08-22T03:17:27.167Z,14.66
2022-08-22T03:18:27.188Z,14.66
2022-08-22T03:19:27.169Z,14.64
2022-08-22T03:20:27.165Z,14.61
2022-08-22T03:21:27.147Z,14.66
2022-08-22T03:22:27.127Z,14.67
2022-08-22T03:23:27.157Z,14.63
2022-08-22T03:24:27.108Z,14.61
2022-08-22T03:25:27.121Z,14.61
2022-08-22T03:26:27.106Z,14.63
2022-08-22T03:27:32.724Z,14.66
2022-08-22T03:28:27.097Z,14.66
2022-08-22T03:29:27.086Z,14.64
2022-08-22T03:30:27.076Z,14.67
2022-08-22T03:31:27.066Z,14.61
2022-08-22T03:32:27.055Z,14.58
2022-08-22T03:33:27.135Z,14.58
2022-08-22T03:34:27.081Z,14.66
2022-08-22T03:35:27.048Z,14.64
2022-08-22T03:36:27.045Z,14.66
2022-08-22T03:37:27.074Z,14.63
2022-08-22T03:38:27.043Z,14.64
2022-08-22T03:39:27.015Z,14.59
2022-08-22T03:40:31.626Z,14.51
2022-08-22T03:41:27.003Z,14.49
2022-08-22T03:42:26.993Z,14.53
2022-08-22T03:43:27.024Z,14.58
2022-08-22T03:44:26.987Z,14.63
2022-08-22T03:45:26.994Z,14.69
2022-08-22T03:46:26.983Z,14.71
2022-08-22T03:47:28.585Z,14.82
2022-08-22T03:48:27.008Z,14.83
2022-08-22T03:49:26.974Z,14.89
2022-08-22T03:50:26.943Z,14.87
2022-08-22T03:51:27.012Z,14.87
2022-08-22T03:52:26.921Z,14.90
2022-08-22T03:53:27.686Z,14.90
2022-08-22T03:54:30.347Z,14.92
2022-08-22T03:55:26.913Z,14.95
2022-08-22T03:56:26.892Z,14.96
2022-08-22T03:57:26.902Z,15.01
2022-08-22T03:58:27.870Z,15.05
2022-08-22T03:59:26.883Z,15.10
2022-08-22T04:00:26.890Z,15.14
2022-08-22T04:01:26.867Z,15.11
2022-08-22T04:02:42.439Z,15.15
2022-08-22T04:03:26.883Z,15.17
2022-08-22T04:04:26.851Z,15.20
2022-08-22T04:05:26.872Z,15.20
2022-08-22T04:06:26.820Z,15.20
2022-08-22T04:07:31.709Z,15.25
2022-08-22T04:08:26.830Z,15.20
2022-08-22T04:09:26.809Z,15.19
2022-08-22T04:10:26.800Z,15.12
2022-08-22T04:11:26.790Z,15.14
2022-08-22T04:12:26.780Z,15.14
2022-08-22T04:13:26.798Z,15.10
2022-08-22T04:14:27.690Z,15.10
2022-08-22T04:15:26.769Z,15.11
2022-08-22T04:16:26.799Z,15.08
2022-08-22T04:17:26.750Z,15.04
2022-08-22T04:18:26.758Z,14.97
2022-08-22T04:19:26.741Z,14.97
2022-08-22T04:20:26.908Z,14.97
2022-08-22T04:21:26.728Z,14.92
2022-08-22T04:22:26.717Z,14.89
2022-08-22T04:23:26.739Z,14.86
2022-08-22T04:24:26.711Z,14.83
2022-08-22T04:25:26.695Z,14.86
2022-08-22T04:26:26.678Z,14.82
2022-08-22T04:27:26.678Z,14.78
2022-08-22T04:28:26.898Z,14.77
2022-08-22T04:29:26.677Z,14.71
2022-08-22T04:30:26.657Z,14.67
2022-08-22T04:31:26.667Z,14.66
2022-08-22T04:32:26.655Z,14.63
2022-08-22T04:33:26.716Z,14.59
2022-08-22T04:34:26.626Z,14.58
2022-08-22T04:35:26.638Z,14.52
2022-08-22T04:36:26.616Z,14.51
2022-08-22T04:37:26.677Z,14.49
2022-08-22T04:38:26.635Z,14.45
2022-08-22T04:39:26.606Z,14.46
2022-08-22T04:40:26.593Z,14.45
2022-08-22T04:41:26.599Z,14.44
2022-08-22T04:42:32.552Z,14.44
2022-08-22T04:43:26.585Z,14.40
2022-08-22T04:44:26.576Z,14.40
2022-08-22T04:45:26.557Z,14.41
2022-08-22T04:46:32.128Z,14.40
2022-08-22T04:47:26.553Z,14.37
2022-08-22T04:48:26.525Z,14.37
2022-08-22T04:49:26.556Z,14.38
2022-08-22T04:50:26.544Z,14.38
2022-08-22T04:51:26.515Z,14.37
2022-08-22T04:52:29.551Z,14.38
2022-08-22T04:53:26.584Z,14.38
2022-08-22T04:54:26.514Z,14.38
2022-08-22T04:55:26.509Z,14.36
2022-08-22T04:56:26.656Z,14.34
2022-08-22T04:57:26.714Z,14.36
2022-08-22T04:58:27.425Z,14.34
2022-08-22T04:59:26.806Z,14.33
2022-08-22T05:00:26.443Z,14.33
2022-08-22T05:01:26.498Z,14.33
2022-08-22T05:02:26.963Z,14.33
2022-08-22T05:03:26.643Z,14.34
2022-08-22T05:04:26.425Z,14.36
2022-08-22T05:05:26.413Z,14.38
2022-08-22T05:06:26.411Z,14.44
2022-08-22T05:07:26.964Z,14.45
2022-08-22T05:08:26.395Z,14.46
2022-08-22T05:09:26.390Z,14.52
2022-08-22T05:10:26.625Z,14.52
2022-08-22T05:11:26.376Z,14.49
2022-08-22T05:12:26.773Z,14.53
2022-08-22T05:13:26.640Z,14.52
2022-08-22T05:14:27.191Z,14.48
2022-08-22T05:15:26.441Z,14.51
2022-08-22T05:16:26.680Z,14.52
2022-08-22T05:17:26.639Z,14.52
2022-08-22T05:18:29.939Z,14.56
2022-08-22T05:19:31.718Z,14.53
2022-08-22T05:20:26.340Z,14.55
2022-08-22T05:21:27.114Z,14.61
2022-08-22T05:22:26.840Z,14.66
2022-08-22T05:23:26.568Z,14.66
2022-08-22T05:24:28.056Z,14.73
2022-08-22T05:25:27.170Z,14.78
2022-08-22T05:26:26.300Z,14.83
2022-08-22T05:27:26.289Z,14.93
2022-08-22T05:28:26.353Z,15.05
2022-08-22T05:29:26.279Z,15.11
2022-08-22T05:30:26.328Z,15.22
2022-08-22T05:31:26.379Z,15.30
2022-08-22T05:32:26.427Z,15.43
2022-08-22T05:33:26.642Z,15.51
2022-08-22T05:34:26.360Z,15.58
2022-08-22T05:35:26.250Z,15.65
2022-08-22T05:36:26.198Z,15.73
2022-08-22T05:37:26.367Z,15.81
2022-08-22T05:38:26.198Z,15.90
2022-08-22T05:39:28.064Z,15.93
2022-08-22T05:40:26.167Z,15.96
2022-08-22T05:41:26.186Z,15.98
2022-08-22T05:42:26.207Z,16.05
2022-08-22T05:43:26.591Z,16.16
2022-08-22T05:44:26.144Z,16.17
2022-08-22T05:45:26.137Z,16.32
2022-08-22T05:46:27.162Z,16.37
2022-08-22T05:47:26.177Z,16.42
2022-08-22T05:48:26.115Z,16.39
2022-08-22T05:49:26.126Z,16.37
2022-08-22T05:50:26.476Z,16.39
2022-08-22T05:51:26.104Z,16.47
2022-08-22T05:52:26.100Z,16.52
2022-08-22T05:53:26.656Z,16.55
2022-08-22T05:54:33.804Z,16.54
2022-08-22T05:55:26.067Z,16.57
2022-08-22T05:56:26.977Z,16.64
2022-08-22T05:57:26.103Z,16.72
2022-08-22T05:58:26.045Z,16.76
2022-08-22T05:59:26.056Z,16.91
2022-08-22T06:00:26.047Z,17.04
2022-08-22T06:01:26.086Z,17.16
2022-08-22T06:02:26.015Z,17.32
2022-08-22T06:03:26.635Z,17.38
2022-08-22T06:04:26.074Z,17.38
2022-08-22T06:05:26.014Z,17.39
2022-08-22T06:06:26.068Z,17.53
2022-08-22T06:07:25.994Z,17.66
2022-08-22T06:08:25.976Z,17.76
2022-08-22T06:09:26.215Z,17.86
2022-08-22T06:10:26.275Z,17.90
2022-08-22T06:11:25.955Z,17.97
2022-08-22T06:12:26.052Z,18.02
2022-08-22T06:13:25.946Z,17.97
2022-08-22T06:14:25.973Z,18.15
2022-08-22T06:15:25.932Z,18.30
2022-08-22T06:16:25.922Z,18.38
2022-08-22T06:17:25.926Z,18.36
2022-08-22T06:18:26.175Z,18.34
2022-08-22T06:19:25.923Z,18.41
2022-08-22T06:20:25.900Z,18.38
2022-08-22T06:21:25.883Z,18.52
2022-08-22T06:22:25.883Z,18.63
2022-08-22T06:23:25.872Z,18.64
2022-08-22T06:24:25.883Z,18.61
2022-08-22T06:25:25.873Z,18.71
2022-08-22T06:26:25.843Z,18.74
2022-08-22T06:27:25.846Z,18.81
2022-08-22T06:28:25.843Z,18.85
2022-08-22T06:29:25.851Z,18.85
2022-08-22T06:30:26.162Z,18.81
2022-08-22T06:31:25.813Z,18.78
2022-08-22T06:32:30.788Z,18.93
2022-08-22T06:33:25.802Z,18.88
2022-08-22T06:34:25.811Z,18.94
2022-08-22T06:35:25.821Z,19.04
2022-08-22T06:36:25.784Z,19.16
2022-08-22T06:37:25.771Z,19.09
2022-08-22T06:38:25.771Z,19.12
2022-08-22T06:39:25.792Z,19.26
2022-08-22T06:40:25.823Z,19.35
2022-08-22T06:41:25.741Z,19.27
2022-08-22T06:42:25.742Z,19.17
2022-08-22T06:43:25.721Z,19.16
2022-08-22T06:44:25.721Z,19.24
2022-08-22T06:45:25.811Z,19.23
2022-08-22T06:46:25.941Z,19.27
2022-08-22T06:47:25.703Z,19.41
2022-08-22T06:48:25.711Z,19.39
2022-08-22T06:49:25.681Z,19.31
2022-08-22T06:50:25.741Z,19.38
2022-08-22T06:51:25.671Z,19.50
2022-08-22T06:52:26.250Z,19.63
2022-08-22T06:53:25.662Z,19.77
2022-08-22T06:54:25.660Z,19.89
2022-08-22T06:55:25.661Z,19.81
2022-08-22T06:56:25.641Z,19.74
2022-08-22T06:57:25.630Z,19.81
2022-08-22T06:58:25.631Z,19.79
2022-08-22T06:59:25.618Z,19.72
2022-08-22T07:00:25.630Z,19.86
2022-08-22T07:01:25.637Z,20.05
2022-08-22T07:02:25.600Z,20.17
2022-08-22T07:03:25.590Z,20.32
2022-08-22T07:04:25.579Z,20.41
2022-08-22T07:05:25.600Z,20.44
2022-08-22T07:06:25.569Z,20.41
2022-08-22T07:07:25.889Z,20.44
2022-08-22T07:08:25.557Z,20.53
2022-08-22T07:09:25.548Z,20.52
2022-08-22T07:10:25.577Z,20.64
2022-08-22T07:11:25.957Z,20.73
2022-08-22T07:12:25.609Z,20.75
2022-08-22T07:13:25.661Z,20.73
2022-08-22T07:14:25.589Z,20.77
2022-08-22T07:15:25.602Z,20.90
2022-08-22T07:16:25.509Z,20.97
2022-08-22T07:17:25.496Z,21.11
2022-08-22T07:18:25.486Z,21.20
2022-08-22T07:19:25.477Z,21.34
2022-08-22T07:20:25.561Z,21.45
2022-08-22T07:21:25.773Z,21.56
2022-08-22T07:22:25.458Z,21.60
2022-08-22T07:23:25.441Z,21.73
2022-08-22T07:24:25.758Z,21.82
2022-08-22T07:25:25.487Z,21.88
2022-08-22T07:26:25.437Z,21.88
2022-08-22T07:27:25.408Z,21.94
2022-08-22T07:28:34.721Z,22.07
2022-08-22T07:29:25.639Z,22.13
2022-08-22T07:30:28.576Z,22.19
2022-08-22T07:31:25.738Z,22.19
2022-08-22T07:32:25.586Z,22.21
2022-08-22T07:33:27.300Z,22.25
2022-08-22T07:34:25.399Z,22.33
2022-08-22T07:35:25.388Z,22.28
2022-08-22T07:36:29.606Z,22.33
2022-08-22T07:37:25.376Z,22.34
2022-08-22T07:38:25.348Z,22.41
2022-08-22T07:39:25.328Z,22.46
2022-08-22T07:40:25.494Z,22.36
2022-08-22T07:41:25.448Z,22.16
2022-08-22T07:42:30.085Z,21.93
2022-08-22T07:43:25.529Z,21.84
2022-08-22T07:44:25.306Z,21.75
2022-08-22T07:45:25.317Z,21.85
2022-08-22T07:46:25.287Z,22.06
2022-08-22T07:47:26.444Z,22.25
2022-08-22T07:48:26.501Z,22.46
2022-08-22T07:49:25.266Z,22.66
2022-08-22T07:50:26.218Z,22.74
2022-08-22T07:51:25.256Z,22.85
2022-08-22T07:52:25.245Z,22.98
2022-08-22T07:53:25.237Z,23.06
2022-08-22T07:54:27.380Z,23.03
2022-08-22T07:55:25.381Z,23.04
2022-08-22T07:56:25.434Z,23.14
2022-08-22T07:57:25.197Z,23.23
2022-08-22T07:58:25.208Z,23.07
2022-08-22T07:59:25.227Z,22.80
2022-08-22T08:00:25.452Z,22.76
2022-08-22T08:01:25.241Z,22.86
2022-08-22T08:02:25.175Z,23.07
2022-08-22T08:03:25.468Z,22.89
2022-08-22T08:04:25.197Z,22.76
2022-08-22T08:05:25.147Z,22.91
2022-08-22T08:06:25.157Z,23.14
2022-08-22T08:07:25.137Z,23.36
2022-08-22T08:08:25.672Z,23.61
2022-08-22T08:09:25.120Z,23.82
2022-08-22T08:10:25.115Z,24.03
2022-08-22T08:11:25.887Z,24.16
2022-08-22T08:12:25.116Z,23.71
2022-08-22T08:13:25.686Z,23.64
2022-08-22T08:14:25.186Z,23.60
2022-08-22T08:15:25.516Z,23.55
2022-08-22T08:16:25.080Z,23.66
2022-08-22T08:17:27.836Z,23.82
2022-08-22T08:18:25.954Z,23.82
2022-08-22T08:19:25.055Z,23.92
2022-08-22T08:20:25.082Z,23.96
2022-08-22T08:21:25.662Z,24.15
2022-08-22T08:22:25.153Z,24.19
2022-08-22T08:23:25.817Z,24.31
2022-08-22T08:24:25.015Z,24.41
2022-08-22T08:25:25.008Z,24.48
2022-08-22T08:26:25.047Z,24.22
2022-08-22T08:27:25.055Z,24.07
2022-08-22T08:28:24.987Z,24.19
2022-08-22T08:29:24.985Z,24.31
2022-08-22T08:30:25.026Z,24.38
2022-08-22T08:31:25.141Z,24.34
2022-08-22T08:32:24.965Z,24.40
2022-08-22T08:33:26.746Z,24.26
2022-08-22T08:34:24.946Z,24.01
2022-08-22T08:35:25.561Z,23.79
2022-08-22T08:36:24.955Z,23.92
2022-08-22T08:37:24.925Z,24.16
2022-08-22T08:38:24.916Z,24.36
2022-08-22T08:39:24.920Z,24.48
2022-08-22T08:40:24.966Z,24.56
2022-08-22T08:41:24.926Z,24.33
2022-08-22T08:42:24.952Z,24.22
2022-08-22T08:43:24.954Z,24.40
2022-08-22T08:44:25.586Z,24.62
2022-08-22T08:45:24.927Z,24.43
2022-08-22T08:46:24.889Z,24.56
2022-08-22T08:47:24.873Z,24.74
2022-08-22T08:48:24.985Z,24.94
2022-08-22T08:49:24.835Z,25.22
2022-08-22T08:50:24.845Z,25.41
2022-08-22T08:51:24.845Z,25.59
2022-08-22T08:52:24.825Z,25.64
2022-08-22T08:53:24.805Z,25.64
2022-08-22T08:54:24.805Z,25.74
2022-08-22T08:55:24.794Z,25.88
2022-08-22T08:56:25.350Z,26.01
2022-08-22T08:57:24.785Z,26.07
2022-08-22T08:58:24.783Z,26.05
2022-08-22T08:59:24.765Z,25.93
2022-08-22T09:00:30.265Z,25.85
2022-08-22T09:01:27.539Z,25.82
2022-08-22T09:02:25.046Z,25.95
2022-08-22T09:03:30.822Z,25.92
2022-08-22T09:04:25.014Z,25.08
2022-08-22T09:05:24.815Z,24.65
2022-08-22T09:06:24.866Z,24.76
2022-08-22T09:07:24.713Z,25.03
2022-08-22T09:08:24.964Z,25.28
2022-08-22T09:09:24.694Z,25.53
2022-08-22T09:10:29.319Z,25.45
2022-08-22T09:11:28.151Z,25.27
2022-08-22T09:12:24.684Z,25.12
2022-08-22T09:13:24.691Z,25.38
2022-08-22T09:14:26.351Z,25.59
2022-08-22T09:15:24.665Z,25.85
2022-08-22T09:16:25.325Z,25.98
2022-08-22T09:17:24.664Z,26.03
2022-08-22T09:18:24.645Z,26.15
2022-08-22T09:19:24.636Z,26.05
2022-08-22T09:20:24.628Z,26.08
2022-08-22T09:21:27.944Z,26.28
2022-08-22T09:22:24.646Z,26.36
2022-08-22T09:23:24.596Z,26.51
2022-08-22T09:24:24.934Z,26.63
2022-08-22T09:25:24.588Z,26.67
2022-08-22T09:26:24.633Z,26.79
2022-08-22T09:27:24.597Z,26.82
2022-08-22T09:28:28.356Z,26.88
2022-08-22T09:29:24.994Z,26.97
2022-08-22T09:30:27.696Z,27.07
2022-08-22T09:31:44.759Z,27.05
2022-08-22T09:32:24.586Z,26.53
2022-08-22T09:33:24.635Z,26.60
2022-08-22T09:34:25.541Z,26.56
2022-08-22T09:35:24.515Z,26.76
2022-08-22T09:36:24.583Z,26.78
2022-08-22T09:37:24.524Z,26.98
2022-08-22T09:38:24.512Z,27.23
2022-08-22T09:39:24.512Z,27.49
2022-08-22T09:41:24.486Z,27.45
2022-08-22T09:42:24.544Z,27.57
2022-08-22T09:43:24.476Z,27.69
2022-08-22T09:44:24.485Z,27.79
2022-08-22T09:45:24.694Z,27.82
2022-08-22T09:46:32.208Z,27.78
2022-08-22T09:47:25.027Z,27.69
2022-08-22T09:48:26.663Z,27.70
2022-08-22T09:49:25.035Z,27.78
2022-08-22T09:50:24.524Z,27.79
2022-08-22T09:51:33.147Z,27.82
2022-08-22T09:52:33.281Z,27.79
2022-08-22T09:53:24.396Z,27.68
2022-08-22T09:54:24.403Z,27.61
2022-08-22T09:55:34.959Z,27.75
2022-08-22T09:56:26.060Z,27.94
2022-08-22T09:57:24.383Z,28.06
2022-08-22T09:58:24.366Z,27.98
2022-08-22T09:59:24.954Z,27.79
2022-08-22T10:00:25.706Z,27.54
2022-08-22T10:01:24.387Z,27.63
2022-08-22T10:02:24.665Z,27.83
2022-08-22T10:03:24.674Z,27.72
2022-08-22T10:04:25.214Z,27.79
2022-08-22T10:05:40.353Z,27.87
2022-08-22T10:06:24.525Z,27.90
2022-08-22T10:07:24.634Z,28.06
2022-08-22T10:08:26.254Z,28.27
2022-08-22T10:09:32.003Z,28.31
2022-08-22T10:10:24.566Z,28.50
2022-08-22T10:11:24.284Z,28.62
2022-08-22T10:12:24.758Z,28.68
2022-08-22T10:13:24.287Z,28.65
2022-08-22T10:14:24.316Z,28.80
2022-08-22T10:15:24.385Z,28.87
2022-08-22T10:16:24.303Z,28.74
2022-08-22T10:17:24.267Z,28.77
2022-08-22T10:18:24.247Z,28.84
2022-08-22T10:19:24.245Z,28.65
2022-08-22T10:20:24.215Z,28.69
2022-08-22T10:21:25.166Z,28.46
2022-08-22T10:22:24.214Z,27.83
2022-08-22T10:23:24.195Z,27.40
2022-08-22T10:24:25.618Z,27.45
2022-08-22T10:25:24.184Z,27.73
2022-08-22T10:26:25.882Z,28.10
2022-08-22T10:27:24.175Z,28.16
2022-08-22T10:28:24.165Z,27.88
2022-08-22T10:29:24.155Z,27.87
2022-08-22T10:30:24.195Z,28.01
2022-08-22T10:31:24.443Z,28.35
2022-08-22T10:32:27.151Z,28.72
2022-08-22T10:33:24.124Z,28.91
2022-08-22T10:34:24.234Z,29.10
2022-08-22T10:35:25.595Z,29.27
2022-08-22T10:36:26.254Z,29.17
2022-08-22T10:37:24.139Z,29.21
2022-08-22T10:38:25.110Z,29.39
2022-08-22T10:39:24.084Z,29.40
2022-08-22T10:40:24.183Z,29.17
2022-08-22T10:41:24.075Z,29.09
2022-08-22T10:42:24.067Z,28.17
2022-08-22T10:43:28.580Z,27.85
2022-08-22T10:44:24.445Z,28.05
2022-08-22T10:45:36.783Z,28.35
2022-08-22T10:46:24.045Z,28.74
2022-08-22T10:47:24.037Z,29.12
2022-08-22T10:48:24.175Z,29.56
2022-08-22T10:49:28.338Z,30.07
2022-08-22T10:50:24.684Z,30.29
2022-08-22T10:51:24.255Z,30.37
2022-08-22T10:52:23.998Z,30.89
2022-08-22T10:53:28.939Z,31.26
2022-08-22T10:54:23.985Z,31.56
2022-08-22T10:55:24.535Z,31.64
2022-08-22T10:56:23.965Z,30.46
2022-08-22T10:57:23.985Z,29.65
2022-08-22T10:58:23.956Z,29.65
2022-08-22T10:59:23.946Z,30.46
2022-08-22T11:00:25.702Z,31.04
2022-08-22T11:01:41.485Z,31.49
2022-08-22T11:02:23.957Z,31.91
2022-08-22T11:03:24.911Z,31.10
2022-08-22T11:04:28.091Z,30.55
2022-08-22T11:05:24.564Z,30.83
2022-08-22T11:06:23.905Z,31.33
2022-08-22T11:07:23.896Z,31.81
2022-08-22T11:08:23.925Z,32.24
2022-08-22T11:09:23.898Z,32.26
2022-08-22T11:10:23.876Z,32.31
2022-08-22T11:11:23.896Z,32.51
2022-08-22T11:12:23.886Z,31.98
2022-08-22T11:13:23.908Z,31.07
2022-08-22T11:14:24.048Z,30.93
2022-08-22T11:15:34.445Z,31.48
2022-08-22T11:16:23.857Z,31.87
2022-08-22T11:17:30.979Z,30.58
2022-08-22T11:18:23.844Z,31.20
2022-08-22T11:19:23.825Z,31.87
2022-08-22T11:20:23.828Z,32.16
2022-08-22T11:21:23.816Z,32.06
2022-08-22T11:22:23.799Z,31.99
2022-08-22T11:23:23.824Z,31.81
2022-08-22T11:24:34.874Z,32.02
2022-08-22T11:25:35.918Z,32.28
2022-08-22T11:26:30.071Z,31.29
2022-08-22T11:27:25.378Z,31.95
2022-08-22T11:28:23.778Z,32.53
2022-08-22T11:29:23.821Z,33.13
2022-08-22T11:30:23.766Z,33.67
2022-08-22T11:31:23.818Z,33.97
2022-08-22T11:32:23.741Z,33.92
2022-08-22T11:33:26.428Z,33.60
2022-08-22T11:34:23.819Z,33.55
2022-08-22T11:35:24.010Z,33.62
2022-08-22T11:36:26.150Z,33.84
2022-08-22T11:37:24.039Z,33.97
2022-08-22T11:38:32.074Z,33.81
2022-08-22T11:39:24.190Z,34.08
2022-08-22T11:40:23.736Z,34.06
2022-08-22T11:41:23.682Z,33.78
2022-08-22T11:42:23.696Z,33.64
2022-08-22T11:43:23.678Z,33.39
2022-08-22T11:44:23.687Z,32.80
2022-08-22T11:45:23.925Z,33.07
2022-08-22T11:46:24.538Z,33.33
2022-08-22T11:47:24.782Z,32.63
2022-08-22T11:48:23.729Z,31.89
2022-08-22T11:49:26.918Z,32.33
2022-08-22T11:50:24.499Z,32.90
2022-08-22T11:51:24.960Z,33.32
2022-08-22T11:52:23.641Z,33.78
2022-08-22T11:53:23.754Z,33.67
2022-08-22T11:54:31.014Z,33.24
2022-08-22T11:55:23.600Z,33.55
2022-08-22T11:56:23.597Z,33.57
2022-08-22T11:57:23.597Z,33.82
2022-08-22T11:58:28.719Z,33.91
2022-08-22T11:59:23.596Z,34.06
2022-08-22T12:00:23.572Z,33.24
2022-08-22T12:01:23.568Z,32.76
2022-08-22T12:02:23.724Z,32.90
2022-08-22T12:03:23.736Z,33.06
2022-08-22T12:04:23.539Z,33.39
2022-08-22T12:05:26.457Z,33.81
2022-08-22T12:06:23.619Z,34.11
2022-08-22T12:07:23.650Z,34.40
2022-08-22T12:08:23.519Z,34.00
2022-08-22T12:09:23.511Z,33.14
2022-08-22T12:10:23.633Z,32.45
2022-08-22T12:11:23.610Z,32.17
2022-08-22T12:12:23.489Z,32.02
2022-08-22T12:13:34.932Z,31.98
2022-08-22T12:14:26.995Z,31.94
2022-08-22T12:15:24.501Z,31.75
2022-08-22T12:16:23.469Z,32.13
2022-08-22T12:17:50.860Z,32.61
2022-08-22T12:18:24.031Z,32.57
2022-08-22T12:19:23.459Z,32.69
2022-08-22T12:20:24.060Z,32.98
2022-08-22T12:21:24.200Z,33.16
2022-08-22T12:22:24.221Z,33.22
2022-08-22T12:23:23.431Z,33.37
2022-08-22T12:24:23.637Z,33.39
2022-08-22T12:25:24.371Z,33.14
2022-08-22T12:26:24.391Z,32.82
2022-08-22T12:27:28.725Z,32.42
2022-08-22T12:28:23.391Z,32.55
2022-08-22T12:29:33.628Z,32.75
2022-08-22T12:30:24.243Z,32.72
2022-08-22T12:31:23.380Z,32.68
2022-08-22T12:32:27.880Z,32.36
2022-08-22T12:33:23.637Z,32.36
2022-08-22T12:34:23.847Z,32.46
2022-08-22T12:35:29.784Z,32.58
2022-08-22T12:36:23.360Z,32.73
2022-08-22T12:37:23.351Z,32.46
2022-08-22T12:38:28.870Z,31.99
2022-08-22T12:39:23.341Z,31.17
2022-08-22T12:40:26.450Z,30.48
2022-08-22T12:41:28.079Z,30.74
2022-08-22T12:42:23.732Z,30.83
2022-08-22T12:43:23.467Z,30.90
2022-08-22T12:44:23.312Z,30.80
2022-08-22T12:45:23.313Z,30.83
2022-08-22T12:46:23.282Z,30.99
2022-08-22T12:47:23.291Z,31.12
2022-08-22T12:48:23.331Z,31.20